Arch Rock, Pennsylvania
Current Conditions -  °F | °C
As of 4:53 PM on Sunday 23 Nov 2014 (Local Time) from KSEG Reporting Station
Clear Clear  
Wind Chill: 47°   Ceiling: Unl
Heat Index: 47°   Visibility: 10mi
Dew Point: 27°   Wind: 3mph
Humidity: 46%   Direction: 210°SSW
Pressure: 30.03"   Gusts: NA
Location:  40.5853°N, 77.3611°W
Report Text: KSEG 232153Z AUTO 21003KT 10SM CLR 08/M03 A3003 RMK AO2 SLP172 T00831028 $
Loading
Personal Weather Stations






























Interactive Weather Map New forecast layout! Learn more

10-Day Weather Forecast

Advertisements
Track Severe Weather on mobile